Time;durP1;ratioP1;P1;durP2;ratioP2;P2;SDS_P1;SDS_P2;PMS_P1;PMS_P2;Temp;Humidity;BMP_temperature;BMP_pressure;BME280_temperature;BME280_humidity;BME280_pressure;Samples;Min_cycle;Max_cycle;Signal;HPM_P1;HPM_P2
2023/02/24 00:01:59;;;;;;;0.50;0.50;;;;;;;1.40;98.03;99293.16;5024917;28;20036;-63
2023/02/24 00:04:27;;;;;;;0.55;0.55;;;;;;;1.41;98.09;99289.75;5025160;28;20359;-62
2023/02/24 00:06:52;;;;;;;0.60;0.60;;;;;;;1.41;98.18;99284.63;5025022;28;20018;-62
2023/02/24 00:09:21;;;;;;;0.50;0.50;;;;;;;1.39;98.14;99271.81;5024801;28;20033;-63
2023/02/24 00:12:00;;;;;;;0.50;0.50;;;;;;;1.35;98.06;99263.28;5024905;28;20133;-63
2023/02/24 00:14:29;;;;;;;0.40;0.40;;;;;;;1.39;98.18;99259.03;5025100;28;20037;-62
2023/02/24 00:16:57;;;;;;;0.50;0.50;;;;;;;1.40;98.35;99259.91;5024986;28;20025;-63
2023/02/24 00:19:24;;;;;;;0.47;0.47;;;;;;;1.43;98.36;99250.56;5024794;28;20022;-63
2023/02/24 00:21:53;;;;;;;0.50;0.50;;;;;;;1.45;98.40;99243.75;5024793;28;20097;-63
2023/02/24 00:24:19;;;;;;;0.50;0.50;;;;;;;1.46;98.45;99248.03;5024991;28;20026;-63
2023/02/24 00:26:44;;;;;;;0.50;0.50;;;;;;;1.49;98.39;99231.84;5027284;28;20061;-63
2023/02/24 00:29:11;;;;;;;0.50;0.50;;;;;;;1.53;98.58;99232.75;5028745;28;20029;-63
2023/02/24 00:31:40;;;;;;;0.50;0.50;;;;;;;1.56;98.60;99223.41;5029080;28;20105;-63
2023/02/24 00:34:07;;;;;;;0.40;0.40;;;;;;;1.61;98.54;99221.72;5028716;28;20029;-63
2023/02/24 00:36:33;;;;;;;0.55;0.55;;;;;;;1.66;98.73;99214.09;5028738;28;20060;-62
2023/02/24 00:39:01;;;;;;;0.40;0.40;;;;;;;1.72;98.82;99210.75;5028486;28;20033;-62
2023/02/24 00:41:29;;;;;;;0.50;0.50;;;;;;;1.78;98.84;99198.00;5028675;28;20466;-63
2023/02/24 00:44:05;;;;;;;0.50;0.50;;;;;;;1.87;99.01;99186.97;5028407;28;20100;-62
2023/02/24 00:46:34;;;;;;;0.50;0.50;;;;;;;1.93;99.03;99189.56;5028697;28;20029;-62
2023/02/24 00:49:04;;;;;;;0.50;0.50;;;;;;;2.00;99.06;99181.94;5028325;28;20025;-63
2023/02/24 00:51:34;;;;;;;0.50;0.50;;;;;;;2.06;98.96;99176.88;5028359;28;20021;-62
2023/02/24 00:54:00;;;;;;;0.50;0.50;;;;;;;2.10;98.88;99170.91;5028711;28;20043;-64
2023/02/24 00:56:28;;;;;;;0.50;0.50;;;;;;;2.15;98.93;99166.69;5028869;28;20038;-64
2023/02/24 00:58:55;;;;;;;0.60;0.60;;;;;;;2.20;99.02;99161.59;5029377;28;20049;-63
2023/02/24 01:01:24;;;;;;;0.50;0.50;;;;;;;2.25;98.95;99151.38;5028754;28;20026;-63
2023/02/24 01:03:53;;;;;;;0.50;0.50;;;;;;;2.26;99.11;99142.81;5028274;28;20025;-63
2023/02/24 01:06:20;;;;;;;0.45;0.45;;;;;;;2.34;98.93;99136.03;5028183;28;20085;-63
2023/02/24 01:08:48;;;;;;;0.40;0.40;;;;;;;2.39;98.87;99133.50;5028019;28;20081;-63
2023/02/24 01:13:59;;;;;;;0.50;0.50;;;;;;;2.44;99.08;99117.31;5027970;28;20025;-63
2023/02/24 01:16:24;;;;;;;0.40;0.40;;;;;;;2.43;98.98;99113.03;5028008;28;20018;-63
2023/02/24 01:18:50;;;;;;;0.50;0.50;;;;;;;2.46;98.78;99105.34;5027894;28;20029;-62
2023/02/24 01:21:18;;;;;;;0.50;0.50;;;;;;;2.46;98.84;99105.34;5027823;28;20033;-62
2023/02/24 01:23:47;;;;;;;0.50;0.50;;;;;;;2.46;98.72;99099.38;5027715;28;20033;-62
2023/02/24 01:26:13;;;;;;;0.50;0.50;;;;;;;2.44;98.59;99096.81;5027943;28;20056;-62
2023/02/24 01:28:38;;;;;;;0.50;0.50;;;;;;;2.44;98.55;99094.25;5027703;28;20021;-62
2023/02/24 01:31:05;;;;;;;0.50;0.50;;;;;;;2.43;98.40;99086.56;5027770;28;20382;-62
2023/02/24 01:33:36;;;;;;;0.50;0.50;;;;;;;2.40;98.30;99073.72;5027685;28;20021;-61
2023/02/24 01:36:13;;;;;;;0.40;0.40;;;;;;;2.39;98.41;99067.75;5028023;28;20018;-62
2023/02/24 01:38:41;;;;;;;0.45;0.45;;;;;;;2.36;98.27;99060.06;5026796;28;20533;-63
2023/02/24 01:41:08;;;;;;;0.50;0.50;;;;;;;2.35;98.26;99055.78;5027617;28;20139;-62
2023/02/24 01:43:57;;;;;;;0.50;0.50;;;;;;;2.35;98.38;99051.53;5027500;28;20029;-62
2023/02/24 01:46:23;;;;;;;0.50;0.50;;;;;;;2.35;98.42;99035.28;5027727;28;20437;-63
2023/02/24 01:48:53;;;;;;;0.50;0.50;;;;;;;2.33;98.37;99037.00;5027442;28;20485;-63
2023/02/24 01:51:18;;;;;;;0.50;0.50;;;;;;;2.32;98.12;99030.16;5042401;28;20030;-63
2023/02/24 01:53:44;;;;;;;0.47;0.47;;;;;;;2.28;98.03;99029.31;5027249;28;20026;-63
2023/02/24 01:56:12;;;;;;;0.45;0.45;;;;;;;2.27;98.31;99022.47;5027156;28;20030;-63
2023/02/24 01:58:39;;;;;;;0.50;0.50;;;;;;;2.25;98.10;99013.94;5027186;28;20032;-64
2023/02/24 02:01:08;;;;;;;0.43;0.43;;;;;;;2.20;97.96;99000.25;5027324;28;20022;-64
2023/02/24 02:03:38;;;;;;;0.50;0.50;;;;;;;2.21;97.95;98997.69;5026999;28;20025;-63
2023/02/24 02:06:08;;;;;;;0.50;0.50;;;;;;;2.21;97.93;98996.84;5027089;28;20029;-63
2023/02/24 02:08:37;;;;;;;0.50;0.50;;;;;;;2.20;97.92;98987.44;5027168;28;20056;-65
2023/02/24 02:11:09;;;;;;;0.50;0.50;;;;;;;2.22;98.00;98978.09;5026920;28;20036;-64
2023/02/24 02:13:38;;;;;;;0.50;0.50;;;;;;;2.22;98.14;98972.97;5026934;28;20022;-64
2023/02/24 02:16:26;;;;;;;0.40;0.40;;;;;;;2.21;98.16;98960.97;5027212;28;20065;-63
2023/02/24 02:19:04;;;;;;;0.70;0.70;;;;;;;2.19;98.32;98957.59;5042273;28;20385;-64
2023/02/24 02:21:48;;;;;;;0.50;0.50;;;;;;;2.18;98.27;98950.72;5027176;28;20034;-65
2023/02/24 02:24:40;;;;;;;0.50;0.50;;;;;;;2.19;98.60;98944.78;5026854;28;20061;-64
2023/02/24 02:27:35;;;;;;;0.50;0.50;;;;;;;2.19;98.55;98937.94;5026758;28;20029;-65
2023/02/24 02:30:30;;;;;;;0.47;0.47;;;;;;;2.19;98.75;98932.81;5026926;28;20080;-64
2023/02/24 02:33:12;;;;;;;0.50;0.50;;;;;;;2.18;98.67;98915.75;5026588;28;20026;-64
2023/02/24 02:35:46;;;;;;;0.60;0.60;;;;;;;2.18;98.78;98902.94;5026797;28;20108;-65
2023/02/24 02:38:14;;;;;;;0.50;0.50;;;;;;;2.17;98.67;98898.66;5026632;28;20306;-65
2023/02/24 02:40:40;;;;;;;0.50;0.50;;;;;;;2.16;98.85;98896.09;5026550;28;20100;-65
2023/02/24 02:43:36;;;;;;;0.50;0.50;;;;;;;2.16;98.80;98884.16;5026347;28;20018;-64
2023/02/24 02:46:33;;;;;;;0.50;0.50;;;;;;;2.15;98.88;98873.91;5025178;28;20464;-64
2023/02/24 02:49:16;;;;;;;0.50;0.50;;;;;;;2.12;98.89;98869.66;5025696;28;20083;-64
2023/02/24 02:51:50;;;;;;;0.50;0.50;;;;;;;2.06;98.99;98852.56;5026087;28;20042;-64
2023/02/24 02:54:30;;;;;;;0.50;0.50;;;;;;;2.08;98.87;98842.31;5026125;28;20029;-64
2023/02/24 02:57:07;;;;;;;0.40;0.40;;;;;;;2.04;98.97;98845.75;5026306;28;20031;-64
2023/02/24 02:59:39;;;;;;;0.50;0.50;;;;;;;2.03;99.20;98826.13;5041456;28;20021;-66
2023/02/24 03:02:12;;;;;;;0.60;0.60;;;;;;;1.97;99.07;98830.38;5026126;28;20048;-64
2023/02/24 03:04:50;;;;;;;0.50;0.50;;;;;;;1.88;99.15;98817.56;5026100;28;20239;-65
2023/02/24 03:07:18;;;;;;;0.60;0.60;;;;;;;1.85;99.18;98810.72;5026297;28;20438;-63
2023/02/24 03:09:50;;;;;;;0.50;0.50;;;;;;;1.79;99.23;98815.00;5025897;28;20033;-64
2023/02/24 03:12:21;;;;;;;0.60;0.60;;;;;;;1.75;99.18;98800.47;5040960;28;20061;-66
2023/02/24 03:14:57;;;;;;;0.60;0.60;;;;;;;1.72;99.36;98793.66;5025899;28;20094;-66
2023/02/24 03:17:27;;;;;;;0.50;0.50;;;;;;;1.67;99.48;98786.00;5025994;28;20030;-66
2023/02/24 03:20:15;;;;;;;0.50;0.50;;;;;;;1.59;99.27;98780.00;5025855;28;20085;-66
2023/02/24 03:22:48;;;;;;;0.50;0.50;;;;;;;1.50;99.11;98775.72;5025788;28;20029;-68
2023/02/24 03:25:15;;;;;;;0.45;0.45;;;;;;;1.48;99.39;98764.63;5025880;28;20475;-68
2023/02/24 03:27:55;;;;;;;0.50;0.50;;;;;;;1.42;99.25;98751.84;5025721;28;20030;-68
2023/02/24 03:30:31;;;;;;;0.50;0.50;;;;;;;1.37;99.41;98739.03;5024538;28;20045;-69
2023/02/24 03:33:17;;;;;;;0.50;0.50;;;;;;;1.33;99.43;98734.75;5025574;28;20018;-67
2023/02/24 03:35:43;;;;;;;0.50;0.50;;;;;;;1.30;99.52;98732.19;5025479;28;20029;-67
2023/02/24 03:38:10;;;;;;;0.50;0.50;;;;;;;1.28;99.55;98726.25;5040834;28;20085;-67
2023/02/24 03:40:38;;;;;;;0.50;0.50;;;;;;;1.24;99.66;98720.25;5024324;28;20025;-68
2023/02/24 03:43:10;;;;;;;0.47;0.47;;;;;;;1.23;99.63;98708.34;5025202;28;20040;-67
2023/02/24 03:45:38;;;;;;;0.50;0.50;;;;;;;1.20;99.68;98700.63;5025474;28;20057;-66
2023/02/24 03:48:07;;;;;;;0.50;0.50;;;;;;;1.17;99.77;98698.94;5024102;28;20041;-67
2023/02/24 03:50:34;;;;;;;0.50;0.50;;;;;;;1.14;99.63;98691.25;5025278;28;20029;-68
2023/02/24 03:53:32;;;;;;;0.50;0.50;;;;;;;1.11;99.81;98678.47;5025443;28;20056;-68
2023/02/24 03:56:18;;;;;;;0.40;0.40;;;;;;;1.11;99.97;98673.34;5040718;28;20029;-66
2023/02/24 03:58:45;;;;;;;0.50;0.50;;;;;;;1.09;100.00;98668.25;5027348;28;20034;-68
2023/02/24 04:01:26;;;;;;;0.50;0.50;;;;;;;1.07;100.00;98662.25;5025406;28;20030;-67
2023/02/24 04:04:02;;;;;;;0.43;0.43;;;;;;;1.04;99.94;98651.22;5040262;28;20498;-67
2023/02/24 04:06:45;;;;;;;0.50;0.50;;;;;;;1.01;100.00;98646.09;5025263;28;20272;-67
2023/02/24 04:09:42;;;;;;;0.60;0.60;;;;;;;0.97;100.00;98624.78;5025198;28;20036;-66
2023/02/24 04:12:20;;;;;;;0.60;0.60;;;;;;;0.91;100.00;98624.78;5023670;28;20029;-67
2023/02/24 04:14:48;;;;;;;0.50;0.50;;;;;;;0.91;100.00;98619.66;5025211;28;20036;-66
2023/02/24 04:17:22;;;;;;;0.60;0.60;;;;;;;0.83;100.00;98615.38;5025231;28;20462;-67
2023/02/24 04:19:52;;;;;;;0.50;0.50;;;;;;;0.84;100.00;98603.47;5025096;28;20093;-67
2023/02/24 04:22:23;;;;;;;0.50;0.50;;;;;;;0.76;100.00;98590.66;5025094;28;20080;-69
2023/02/24 04:24:52;;;;;;;0.50;0.50;;;;;;;0.78;100.00;98588.13;5025231;28;20025;-68
2023/02/24 04:27:19;;;;;;;0.43;0.43;;;;;;;0.76;100.00;98587.25;5024920;28;20310;-69
2023/02/24 04:29:56;;;;;;;0.50;0.50;;;;;;;0.74;100.00;98571.91;5023729;28;20037;-66
2023/02/24 04:32:25;;;;;;;0.50;0.50;;;;;;;0.76;100.00;98574.47;5025097;28;20022;-67
2023/02/24 04:34:51;;;;;;;0.60;0.60;;;;;;;0.73;100.00;98567.69;5025005;28;20030;-67
2023/02/24 04:37:21;;;;;;;0.50;0.50;;;;;;;0.71;100.00;98565.13;5024886;28;20102;-68
2023/02/24 04:39:49;;;;;;;0.50;0.50;;;;;;;0.63;100.00;98550.63;5024968;28;20076;-67
2023/02/24 04:42:15;;;;;;;0.60;0.60;;;;;;;0.61;100.00;98548.91;5024800;28;20112;-69
2023/02/24 04:44:41;;;;;;;0.57;0.57;;;;;;;0.57;100.00;98542.09;5024998;28;20088;-67
2023/02/24 04:47:09;;;;;;;0.50;0.50;;;;;;;0.59;100.00;98529.34;5024811;28;20021;-67
2023/02/24 04:49:35;;;;;;;0.50;0.50;;;;;;;0.60;100.00;98523.38;5024638;28;20046;-66
2023/02/24 04:52:00;;;;;;;0.57;0.57;;;;;;;0.57;100.00;98525.94;5039811;28;20049;-67
2023/02/24 04:54:28;;;;;;;0.60;0.60;;;;;;;0.48;100.00;98507.19;5024699;28;20018;-68
2023/02/24 04:56:54;;;;;;;0.50;0.50;;;;;;;0.44;100.00;98509.72;5024502;28;20038;-66
2023/02/24 04:59:21;;;;;;;0.40;0.40;;;;;;;0.42;100.00;98507.16;5024558;28;20037;-66
2023/02/24 05:01:50;;;;;;;0.50;0.50;;;;;;;0.36;100.00;98487.59;5039715;28;20029;-66
2023/02/24 05:04:16;;;;;;;0.50;0.50;;;;;;;0.31;100.00;98485.88;5024676;28;20021;-67
2023/02/24 05:06:45;;;;;;;0.60;0.60;;;;;;;0.29;100.00;98472.28;5024592;28;20029;-67
2023/02/24 05:09:13;;;;;;;0.60;0.60;;;;;;;0.31;100.00;98475.66;5039672;28;20045;-66
2023/02/24 05:11:44;;;;;;;0.50;0.50;;;;;;;0.30;100.00;98461.19;5024550;28;20049;-65
2023/02/24 05:14:13;;;;;;;0.50;0.50;;;;;;;0.25;100.00;98450.97;5027245;28;20044;-68
2023/02/24 05:16:44;;;;;;;0.60;0.60;;;;;;;0.28;100.00;98447.56;5028329;28;20470;-66
2023/02/24 05:21:56;;;;;;;0.50;0.50;;;;;;;0.36;100.00;98433.13;5028009;28;20056;-65
2023/02/24 05:24:24;;;;;;;0.50;0.50;;;;;;;0.43;100.00;98427.16;5028178;28;20097;-65
2023/02/24 05:26:56;;;;;;;0.50;0.50;;;;;;;0.51;100.00;98411.00;5027923;28;20029;-67
2023/02/24 05:29:23;;;;;;;0.60;0.60;;;;;;;0.59;100.00;98411.88;5043058;28;20037;-66
2023/02/24 05:31:48;;;;;;;0.50;0.50;;;;;;;0.60;100.00;98399.09;5043316;28;20104;-67
2023/02/24 05:34:16;;;;;;;0.50;0.50;;;;;;;0.60;100.00;98396.53;5027821;28;20072;-67
2023/02/24 05:36:44;;;;;;;0.50;0.50;;;;;;;0.61;100.00;98385.47;5028080;28;20032;-66
2023/02/24 05:39:11;;;;;;;0.43;0.43;;;;;;;0.60;100.00;98365.91;5027706;28;20089;-68
2023/02/24 05:41:42;;;;;;;0.50;0.50;;;;;;;0.60;100.00;98375.25;5027696;28;20025;-67
2023/02/24 05:44:14;;;;;;;0.60;0.60;;;;;;;0.57;100.00;98355.69;5042818;28;20021;-67
2023/02/24 05:46:43;;;;;;;0.60;0.60;;;;;;;0.61;100.00;98361.63;5042767;28;20097;-67
2023/02/24 05:49:25;;;;;;;0.50;0.50;;;;;;;0.55;100.00;98346.31;5027596;28;20045;-67
2023/02/24 05:51:55;;;;;;;0.60;0.60;;;;;;;0.49;100.00;98345.50;5027350;28;20054;-67
2023/02/24 05:54:28;;;;;;;0.55;0.55;;;;;;;0.43;100.00;98339.53;5027557;28;20094;-69
2023/02/24 05:56:57;;;;;;;0.50;0.50;;;;;;;0.42;100.00;98336.09;5027642;28;20022;-67
2023/02/24 05:59:23;;;;;;;0.50;0.50;;;;;;;0.41;100.00;98324.22;5027293;28;20037;-67
2023/02/24 06:01:52;;;;;;;0.50;0.50;;;;;;;0.38;100.00;98315.69;5042147;28;20034;-66
2023/02/24 06:04:38;;;;;;;0.50;0.50;;;;;;;0.24;100.00;98309.75;5042557;28;20106;-67
2023/02/24 06:07:23;;;;;;;0.60;0.60;;;;;;;0.14;100.00;98305.50;5027133;28;20033;-66
2023/02/24 06:09:58;;;;;;;0.50;0.50;;;;;;;0.06;100.00;98295.31;5026800;28;20117;-68
2023/02/24 06:12:27;;;;;;;0.50;0.50;;;;;;;0.05;100.00;98295.31;5026897;28;20082;-65
2023/02/24 06:14:53;;;;;;;0.50;0.50;;;;;;;0.01;100.00;98284.22;5027157;28;20025;-67
2023/02/24 06:17:20;;;;;;;0.50;0.50;;;;;;;0.02;100.00;98285.94;5026763;28;20030;-67
2023/02/24 06:19:48;;;;;;;0.60;0.60;;;;;;;0.04;100.00;98286.78;5025528;28;20026;-69
2023/02/24 06:22:17;;;;;;;0.50;0.50;;;;;;;0.02;100.00;98275.72;5042089;28;20024;-69
2023/02/24 06:24:44;;;;;;;0.60;0.60;;;;;;;-0.02;100.00;98272.31;5025514;28;20045;-67
2023/02/24 06:27:17;;;;;;;0.50;0.50;;;;;;;-0.02;100.00;98259.56;5026635;28;20033;-67
2023/02/24 06:29:50;;;;;;;0.50;0.50;;;;;;;-0.04;100.00;98257.88;5027077;28;20041;-67
2023/02/24 06:32:22;;;;;;;0.40;0.40;;;;;;;-0.06;100.00;98257.00;5026894;28;20033;-66
2023/02/24 06:34:48;;;;;;;0.50;0.50;;;;;;;-0.08;100.00;98240.88;5026735;28;20386;-67
2023/02/24 06:37:14;;;;;;;0.50;0.50;;;;;;;-0.06;100.00;98241.69;5042039;28;20026;-69
2023/02/24 06:39:40;;;;;;;0.50;0.50;;;;;;;-0.06;100.00;98229.81;5041583;28;20029;-68
2023/02/24 06:42:07;;;;;;;0.50;0.50;;;;;;;-0.05;100.00;98221.28;5026487;28;20084;-67
2023/02/24 06:44:35;;;;;;;0.50;0.50;;;;;;;-0.06;100.00;98204.28;5026737;28;20090;-68
2023/02/24 06:47:01;;;;;;;0.50;0.50;;;;;;;-0.05;100.00;98190.69;5026645;28;20032;-66
2023/02/24 06:49:27;;;;;;;0.50;0.50;;;;;;;-0.04;100.00;98197.50;5041802;28;20116;-68
2023/02/24 06:51:54;;;;;;;0.50;0.50;;;;;;;-0.02;100.00;98197.50;5026564;28;20043;-67
2023/02/24 06:54:34;;;;;;;0.60;0.60;;;;;;;-0.04;100.00;98189.00;5026607;28;20113;-68
2023/02/24 06:57:02;;;;;;;0.60;0.60;;;;;;;-0.04;100.00;98184.75;5026643;28;20022;-68
2023/02/24 06:59:28;;;;;;;0.50;0.50;;;;;;;-0.08;100.00;98164.34;5026685;28;20018;-68
2023/02/24 07:01:58;;;;;;;0.47;0.47;;;;;;;-0.03;100.00;98165.16;5026711;28;20026;-66
2023/02/24 07:04:24;;;;;;;0.60;0.60;;;;;;;-0.01;100.00;98159.22;5026546;28;20112;-67
2023/02/24 07:06:54;;;;;;;0.60;0.60;;;;;;;0.05;100.00;98154.97;5026375;28;20071;-67
2023/02/24 07:09:22;;;;;;;0.50;0.50;;;;;;;-0.01;100.00;98141.38;5026407;28;20030;-65
2023/02/24 07:11:51;;;;;;;0.50;0.50;;;;;;;0.13;100.00;98152.41;5026173;28;20112;-69
2023/02/24 07:14:24;;;;;;;0.60;0.60;;;;;;;0.17;100.00;98142.19;5026069;28;20014;-66
2023/02/24 07:16:57;;;;;;;0.50;0.50;;;;;;;0.20;100.00;98141.31;5026318;28;20033;-66
2023/02/24 07:19:31;;;;;;;0.50;0.50;;;;;;;0.29;100.00;98130.25;5026156;28;20025;-66
2023/02/24 07:22:01;;;;;;;0.50;0.50;;;;;;;0.34;100.00;98128.50;5025648;28;20385;-65
2023/02/24 07:24:34;;;;;;;0.47;0.47;;;;;;;0.40;100.00;98125.91;5026068;28;20022;-67
2023/02/24 07:27:06;;;;;;;0.50;0.50;;;;;;;0.45;100.00;98119.09;5026494;28;20022;-65
2023/02/24 07:29:33;;;;;;;0.65;0.65;;;;;;;0.53;100.00;98115.69;5040845;28;20457;-65
2023/02/24 07:32:01;;;;;;;0.50;0.50;;;;;;;0.57;100.00;98104.56;5026028;28;20030;-66
2023/02/24 07:34:28;;;;;;;0.50;0.50;;;;;;;0.59;100.00;98100.31;5026141;28;20525;-65
2023/02/24 07:36:55;;;;;;;0.50;0.50;;;;;;;0.69;100.00;98101.09;5025874;28;20064;-65
2023/02/24 07:39:24;;;;;;;0.45;0.45;;;;;;;0.74;100.00;98097.69;5026040;28;20029;-65
2023/02/24 07:41:52;;;;;;;0.50;0.50;;;;;;;0.81;100.00;98083.16;5041112;28;20022;-65
2023/02/24 07:44:19;;;;;;;0.50;0.50;;;;;;;0.80;100.00;98076.34;5040588;28;20018;-71
2023/02/24 07:46:47;;;;;;;0.50;0.50;;;;;;;0.95;100.00;98082.22;5025768;28;20024;-64
2023/02/24 07:49:17;;;;;;;0.50;0.50;;;;;;;1.02;100.00;98072.81;5024584;28;20026;-65
2023/02/24 07:51:42;;;;;;;0.50;0.50;;;;;;;1.09;100.00;98066.78;5025083;28;20042;-65
2023/02/24 07:54:10;;;;;;;0.50;0.50;;;;;;;1.13;100.00;98067.59;5025521;28;20037;-66
2023/02/24 07:56:44;;;;;;;0.50;0.50;;;;;;;1.15;100.00;98074.38;5025412;28;20092;-65
2023/02/24 07:59:14;;;;;;;0.50;0.50;;;;;;;1.19;100.00;98063.31;5024672;28;20080;-65
2023/02/24 08:01:48;;;;;;;0.50;0.50;;;;;;;1.22;100.00;98055.59;5025702;28;20021;-65
2023/02/24 08:04:15;;;;;;;0.50;0.50;;;;;;;1.22;100.00;98058.16;5025292;28;20121;-66
2023/02/24 08:06:44;;;;;;;0.50;0.50;;;;;;;1.29;100.00;98060.66;5025532;28;20022;-66
2023/02/24 08:09:45;;;;;;;0.50;0.50;;;;;;;1.36;100.00;98060.59;5025582;28;20386;-64
2023/02/24 08:12:07;;;;;;;0.50;0.50;;;;;;;1.47;100.00;98057.94;5025351;28;20033;-65
2023/02/24 08:14:33;;;;;;;0.50;0.50;;;;;;;1.56;100.00;98053.59;5040540;28;20028;-66
2023/02/24 08:17:00;;;;;;;0.50;0.50;;;;;;;1.68;100.00;98052.63;5025395;28;20077;-65
2023/02/24 08:19:38;;;;;;;0.50;0.50;;;;;;;1.82;100.00;98055.88;5025504;28;20025;-65
2023/02/24 08:22:18;;;;;;;0.43;0.43;;;;;;;1.98;100.00;98048.88;5025169;28;20056;-64
2023/02/24 08:24:51;;;;;;;0.50;0.50;;;;;;;2.17;100.00;98045.25;5025207;28;20085;-65
2023/02/24 08:27:19;;;;;;;0.50;0.50;;;;;;;2.30;100.00;98044.22;5025202;28;20064;-64
2023/02/24 08:29:57;;;;;;;0.40;0.40;;;;;;;2.46;100.00;98044.88;5025283;28;20037;-65
2023/02/24 08:32:24;;;;;;;0.50;0.50;;;;;;;2.58;100.00;98040.44;5025394;28;20076;-64
2023/02/24 08:34:55;;;;;;;0.50;0.50;;;;;;;2.69;100.00;98046.28;5025934;28;20036;-64
2023/02/24 08:37:20;;;;;;;0.50;0.50;;;;;;;2.79;100.00;98041.00;5040477;28;20034;-64
2023/02/24 08:39:46;;;;;;;0.40;0.40;;;;;;;2.88;100.00;98038.31;5024994;28;20053;-63
2023/02/24 08:42:13;;;;;;;0.50;0.50;;;;;;;2.92;100.00;98033.97;5025190;28;20026;-64
2023/02/24 08:44:39;;;;;;;0.40;0.40;;;;;;;2.91;100.00;98024.59;5025454;28;20036;-63
2023/02/24 08:47:06;;;;;;;0.50;0.50;;;;;;;2.98;100.00;98036.44;5025326;28;20037;-63
2023/02/24 08:49:32;;;;;;;0.50;0.50;;;;;;;3.02;100.00;98039.81;5028476;28;20022;-65
2023/02/24 08:52:01;;;;;;;0.50;0.50;;;;;;;2.98;100.00;98028.75;5028739;28;20115;-64
2023/02/24 08:54:30;;;;;;;0.40;0.40;;;;;;;2.92;100.00;98031.41;5028832;28;20026;-64
2023/02/24 08:57:06;;;;;;;0.43;0.43;;;;;;;2.87;100.00;98036.63;5028851;28;20048;-64
2023/02/24 08:59:36;;;;;;;0.52;0.52;;;;;;;2.83;100.00;98035.81;5028646;28;20021;-64
2023/02/24 09:02:17;;;;;;;0.50;0.50;;;;;;;2.77;100.00;98035.06;5028855;28;20036;-64
2023/02/24 09:04:58;;;;;;;0.47;0.47;;;;;;;2.72;100.00;98033.41;5043840;28;20018;-64
2023/02/24 09:07:26;;;;;;;0.50;0.50;;;;;;;2.69;100.00;98035.16;5043827;28;20401;-65
2023/02/24 09:09:58;;;;;;;0.50;0.50;;;;;;;2.59;100.00;98040.44;5028277;28;20030;-65
2023/02/24 09:12:27;;;;;;;0.50;0.50;;;;;;;2.63;100.00;98043.81;5028359;28;20026;-64
2023/02/24 09:15:06;;;;;;;0.50;0.50;;;;;;;2.63;100.00;98036.13;5028594;28;20032;-65
2023/02/24 09:17:39;;;;;;;0.40;0.40;;;;;;;2.65;100.00;98038.66;5028562;28;20041;-65
2023/02/24 09:23:08;;;;;;;0.40;0.40;;;;;;;2.61;100.00;98037.84;5028339;28;20088;-66
2023/02/24 09:25:39;;;;;;;0.47;0.47;;;;;;;2.61;100.00;98037.84;5028364;28;20588;-66
2023/02/24 09:28:09;;;;;;;0.60;0.60;;;;;;;2.59;100.00;98035.31;5027900;28;20025;-65
2023/02/24 09:30:44;;;;;;;0.60;0.60;;;;;;;2.56;100.00;98037.06;5027922;28;20025;-66
2023/02/24 09:33:20;;;;;;;0.50;0.50;;;;;;;2.54;100.00;98038.81;5028168;28;20037;-65
2023/02/24 09:36:08;;;;;;;0.50;0.50;;;;;;;2.53;100.00;98030.28;5043360;28;20045;-65
2023/02/24 09:44:34;;;;;;;0.60;0.60;;;;;;;2.50;100.00;98026.91;5027712;28;20110;-66
2023/02/24 09:47:12;;;;;;;0.50;0.50;;;;;;;2.47;100.00;98026.09;5043046;28;20030;-67
2023/02/24 09:49:45;;;;;;;0.50;0.50;;;;;;;2.47;100.00;98028.66;5026242;28;20032;-66
2023/02/24 09:52:17;;;;;;;0.50;0.50;;;;;;;2.45;100.00;98022.69;5042198;28;20057;-66
2023/02/24 09:58:03;;;;;;;0.40;0.40;;;;;;;2.49;100.00;98028.63;5027627;28;19964;-66
2023/02/24 10:00:32;;;;;;;0.50;0.50;;;;;;;2.50;100.00;98032.03;5024892;28;20053;-66
2023/02/24 10:03:19;;;;;;;;;;;;;;;2.56;100.00;98026.81;5025926;28;20026;-66
2023/02/24 10:05:57;;;;;;;0.50;0.50;;;;;;;2.59;100.00;98019.09;5024561;28;19909;-67
2023/02/24 10:08:32;;;;;;;0.50;0.50;;;;;;;2.60;100.00;98010.53;5025728;28;20437;-65
2023/02/24 10:11:07;;;;;;;0.40;0.40;;;;;;;2.58;100.00;98012.28;5027082;28;20022;-65
2023/02/24 10:13:38;;;;;;;0.50;0.50;;;;;;;2.54;100.00;98008.06;5026932;28;20085;-67
2023/02/24 10:16:11;;;;;;;0.60;0.60;;;;;;;2.53;100.00;98009.78;5027092;28;20028;-65
2023/02/24 10:18:59;;;;;;;0.60;0.60;;;;;;;2.58;100.00;98000.31;5026757;28;20030;-64
2023/02/24 10:22:01;;;;;;;0.47;0.47;;;;;;;2.62;100.00;98003.66;5025409;28;20030;-65
2023/02/24 10:24:37;;;;;;;0.60;0.60;;;;;;;2.70;100.00;97996.72;5020757;28;20046;-66
2023/02/24 10:27:15;;;;;;;0.50;0.50;;;;;;;2.74;100.00;97997.53;5025392;28;20034;-66
2023/02/24 10:29:46;;;;;;;0.50;0.50;;;;;;;2.76;100.00;97998.34;5025123;28;20037;-66
2023/02/24 10:32:45;;;;;;;;;;;;;;;;;;;;;
2023/02/24 10:35:18;;;;;;;0.50;0.50;;;;;;;2.76;100.00;97989.81;5025098;28;20094;-65
2023/02/24 10:37:48;;;;;;;0.50;0.50;;;;;;;2.77;100.00;97984.66;5025088;28;20029;-65
2023/02/24 10:40:25;;;;;;;0.50;0.50;;;;;;;2.83;100.00;97989.69;5025373;28;20446;-66
2023/02/24 10:43:01;;;;;;;0.50;0.50;;;;;;;2.90;100.00;97985.31;5025550;28;20101;-65
2023/02/24 10:45:30;;;;;;;0.40;0.40;;;;;;;2.93;100.00;97982.69;5025821;28;20089;-65
2023/02/24 10:47:58;;;;;;;0.50;0.50;;;;;;;2.99;100.00;97975.78;5026609;28;20024;-65
2023/02/24 10:50:30;;;;;;;0.50;0.50;;;;;;;3.06;100.00;97977.34;5025913;28;20034;-65
2023/02/24 11:07:08;;;;;;;0.50;0.50;;;;;;;3.09;100.00;97972.19;5024740;28;20029;-65
2023/02/24 11:09:42;;;;;;;0.60;0.60;;;;;;;3.06;100.00;97972.22;5024616;28;20075;-65
2023/02/24 11:18:23;;;;;;;0.50;0.50;;;;;;;3.00;100.00;97977.47;5024704;28;20104;-66
2023/02/24 11:21:03;;;;;;;0.50;0.50;;;;;;;2.88;100.00;97979.34;5024875;28;20093;-65
2023/02/24 11:23:50;;;;;;;0.47;0.47;;;;;;;2.84;100.00;97977.72;5024041;28;20034;-65
2023/02/24 11:26:19;;;;;;;0.50;0.50;;;;;;;2.84;100.00;97977.72;5025290;28;20021;-66
2023/02/24 11:29:00;;;;;;;0.50;0.50;;;;;;;2.78;100.00;97980.41;5040326;28;20469;-66
2023/02/24 11:31:43;;;;;;;0.50;0.50;;;;;;;2.64;100.00;97975.47;5025757;28;20030;-65
2023/02/24 11:34:15;;;;;;;0.50;0.50;;;;;;;2.52;100.00;97982.47;5040829;28;20082;-67
2023/02/24 11:36:46;;;;;;;0.50;0.50;;;;;;;2.43;100.00;97980.06;5025755;28;20045;-69
2023/02/24 11:39:28;;;;;;;0.70;0.70;;;;;;;2.46;100.00;97982.56;5025820;28;20026;-68
2023/02/24 11:41:57;;;;;;;0.60;0.60;;;;;;;2.41;100.00;97966.44;5025648;28;20504;-68
2023/02/24 11:44:37;;;;;;;0.50;0.50;;;;;;;2.48;100.00;97973.13;5024267;28;20032;-67
2023/02/24 11:47:08;;;;;;;0.50;0.50;;;;;;;2.54;100.00;97977.34;5025769;28;20032;-68
2023/02/24 11:49:42;;;;;;;0.60;0.60;;;;;;;2.48;100.00;97971.44;5025809;28;20030;-68
2023/02/24 11:52:17;;;;;;;0.50;0.50;;;;;;;2.52;100.00;97977.38;5023986;28;20073;-67
2023/02/24 11:54:49;;;;;;;0.50;0.50;;;;;;;2.47;100.00;97974.00;5025283;28;20061;-67
2023/02/24 11:57:27;;;;;;;0.60;0.60;;;;;;;2.44;100.00;97974.91;5023137;28;20029;-68
2023/02/24 12:00:18;;;;;;;0.50;0.50;;;;;;;2.49;100.00;97977.41;5023961;28;20109;-67
2023/02/24 12:02:59;;;;;;;0.50;0.50;;;;;;;2.53;100.00;97980.75;5025272;28;20091;-66
2023/02/24 12:05:41;;;;;;;0.50;0.50;;;;;;;2.51;100.00;97982.50;5025326;28;20082;-68
2023/02/24 12:08:12;;;;;;;0.60;0.60;;;;;;;2.44;100.00;97986.88;5025399;28;20026;-67
2023/02/24 12:10:43;;;;;;;0.65;0.65;;;;;;;2.37;100.00;97980.13;5025183;28;20026;-68
2023/02/24 12:13:19;;;;;;;0.60;0.60;;;;;;;2.36;100.00;97979.28;5025353;28;20037;-68
2023/02/24 12:15:54;;;;;;;0.60;0.60;;;;;;;2.36;100.00;97986.97;5025513;28;20110;-69
2023/02/24 12:18:33;;;;;;;0.50;0.50;;;;;;;2.40;100.00;97988.63;5040498;28;20033;-67
2023/02/24 12:21:32;;;;;;;0.40;0.40;;;;;;;2.42;100.00;97992.00;5025473;28;20044;-68
2023/02/24 12:24:00;;;;;;;0.50;0.50;;;;;;;2.44;100.00;97990.28;5044830;28;20504;-68
2023/02/24 12:26:46;;;;;;;0.50;0.50;;;;;;;2.47;100.00;97990.25;5027608;28;20044;-68
2023/02/24 12:29:33;;;;;;;0.50;0.50;;;;;;;2.46;100.00;97991.09;5042757;28;20034;-68
2023/02/24 12:32:14;;;;;;;0.50;0.50;;;;;;;2.46;100.00;97992.81;5027597;28;20052;-68
2023/02/24 12:35:06;;;;;;;0.50;0.50;;;;;;;2.47;100.00;98003.03;5043449;28;20061;-68
2023/02/24 12:37:34;;;;;;;0.60;0.60;;;;;;;2.47;100.00;97999.63;5043214;28;20069;-68
2023/02/24 12:39:59;;;;;;;0.50;0.50;;;;;;;2.51;100.00;98003.00;5027689;28;20021;-68